createdAt,value
2019-02-17T00:02:21.607Z,14.60
2019-02-17T00:04:49.883Z,14.60
2019-02-17T00:07:17.901Z,14.40
2019-02-17T00:09:47.104Z,15.60
2019-02-17T00:12:28.250Z,14.60
2019-02-17T00:14:55.888Z,15.07
2019-02-17T00:17:24.368Z,15.60
2019-02-17T00:19:52.849Z,15.17
2019-02-17T00:22:21.329Z,18.57
2019-02-17T00:24:49.608Z,18.07
2019-02-17T00:27:18.087Z,15.10
2019-02-17T00:29:46.568Z,15.23
2019-02-17T00:32:15.050Z,20.97
2019-02-17T00:34:43.528Z,22.13
2019-02-17T00:37:12.010Z,23.27
2019-02-17T00:39:40.488Z,24.37
2019-02-17T00:42:08.561Z,22.33
2019-02-17T00:44:36.835Z,23.00
2019-02-17T00:47:05.111Z,22.57
2019-02-17T00:49:33.386Z,22.17
2019-02-17T00:52:01.663Z,27.63
2019-02-17T00:54:29.676Z,24.97
2019-02-17T00:56:58.213Z,24.93
2019-02-17T00:59:26.696Z,22.57
2019-02-17T01:02:08.004Z,19.70
2019-02-17T01:04:35.537Z,20.87
2019-02-17T01:07:04.018Z,23.73
2019-02-17T01:09:33.522Z,29.30
2019-02-17T01:12:01.798Z,31.43
2019-02-17T01:14:30.074Z,24.63
2019-02-17T01:16:58.354Z,24.63
2019-02-17T01:19:26.422Z,18.17
2019-02-17T01:21:54.900Z,17.63
2019-02-17T01:24:42.772Z,18.10
2019-02-17T01:27:10.909Z,16.67
2019-02-17T01:29:38.980Z,16.07
2019-02-17T01:32:07.254Z,16.50
2019-02-17T01:34:35.734Z,17.13
2019-02-17T01:37:04.217Z,18.27
2019-02-17T01:39:32.700Z,19.37
2019-02-17T01:42:01.175Z,17.30
2019-02-17T01:44:29.657Z,17.23
2019-02-17T01:46:58.136Z,18.00
2019-02-17T01:49:26.619Z,20.50
2019-02-17T01:51:55.097Z,23.03
2019-02-17T01:54:23.577Z,19.33
2019-02-17T01:56:52.057Z,24.10
2019-02-17T01:59:30.171Z,16.60
2019-02-17T02:01:50.658Z,15.80
2019-02-17T02:04:18.934Z,17.00
2019-02-17T02:07:06.832Z,17.93
2019-02-17T02:09:34.940Z,16.30
2019-02-17T02:12:03.421Z,16.97
2019-02-17T02:14:31.903Z,17.37
2019-02-17T02:17:00.391Z,15.63
2019-02-17T02:19:28.452Z,16.50
2019-02-17T02:21:56.947Z,16.43
2019-02-17T02:24:44.787Z,17.60
2019-02-17T02:27:12.800Z,16.87
2019-02-17T02:29:41.550Z,17.23
2019-02-17T02:32:09.698Z,16.97
2019-02-17T02:34:39.200Z,16.93
2019-02-17T02:37:07.681Z,16.97
2019-02-17T02:39:35.974Z,16.83
2019-02-17T02:42:04.231Z,17.17
2019-02-17T02:44:32.510Z,17.27
2019-02-17T02:47:00.783Z,17.50
2019-02-17T02:49:29.265Z,17.07
2019-02-17T02:51:57.747Z,17.73
2019-02-17T02:54:25.824Z,16.33
2019-02-17T02:56:55.320Z,17.70
2019-02-17T02:59:23.801Z,18.43
2019-02-17T03:01:52.282Z,19.40
2019-02-17T03:04:20.760Z,18.40
2019-02-17T03:06:51.086Z,18.67
2019-02-17T03:09:19.363Z,19.10
2019-02-17T03:11:47.636Z,19.30
2019-02-17T03:14:16.116Z,18.37
2019-02-17T03:16:44.187Z,19.67
2019-02-17T03:19:12.257Z,21.40
2019-02-17T03:21:40.535Z,20.30
2019-02-17T03:24:08.604Z,19.93
2019-02-17T03:26:36.881Z,20.13
2019-02-17T03:29:05.156Z,19.73
2019-02-17T03:31:33.441Z,18.40
2019-02-17T03:34:04.987Z,19.57
2019-02-17T03:36:33.260Z,21.00
2019-02-17T03:39:01.535Z,20.73
2019-02-17T03:41:29.606Z,20.00
2019-02-17T03:43:57.882Z,21.50
2019-02-17T03:46:26.158Z,22.47
2019-02-17T03:48:54.642Z,23.07
2019-02-17T03:51:23.119Z,23.67
2019-02-17T03:53:51.599Z,22.47
2019-02-17T03:56:19.874Z,22.37
2019-02-17T03:58:48.359Z,21.10
2019-02-17T04:01:16.837Z,20.13
2019-02-17T04:03:45.318Z,19.93
2019-02-17T04:06:14.868Z,19.50
2019-02-17T04:08:43.101Z,19.60
2019-02-17T04:11:11.577Z,18.70
2019-02-17T04:13:39.852Z,20.10
2019-02-17T04:16:08.333Z,20.27
2019-02-17T04:18:36.609Z,19.53
2019-02-17T04:21:04.640Z,21.77
2019-02-17T04:23:32.757Z,21.20
2019-02-17T04:26:01.642Z,21.30
2019-02-17T04:28:29.714Z,21.53
2019-02-17T04:30:57.375Z,21.77
2019-02-17T04:33:38.878Z,20.70
2019-02-17T04:36:06.832Z,20.00
2019-02-17T04:38:34.287Z,20.50
2019-02-17T04:41:02.563Z,22.93
2019-02-17T04:43:31.041Z,21.20
2019-02-17T04:45:59.520Z,22.00
2019-02-17T04:48:40.806Z,21.13
2019-02-17T04:51:08.363Z,21.63
2019-02-17T04:53:36.431Z,24.87
2019-02-17T04:56:18.201Z,23.90
2019-02-17T04:58:45.681Z,23.10
2019-02-17T05:01:14.161Z,23.77
2019-02-17T05:03:42.437Z,24.57
2019-02-17T05:06:10.508Z,24.23
2019-02-17T05:08:38.987Z,24.83
2019-02-17T05:11:07.267Z,24.33
2019-02-17T05:13:35.756Z,25.40
2019-02-17T05:16:04.019Z,26.30
2019-02-17T05:18:32.319Z,25.47
2019-02-17T05:21:00.572Z,26.53
2019-02-17T05:23:28.846Z,26.20
2019-02-17T05:25:58.146Z,27.37
2019-02-17T05:28:26.637Z,22.77
2019-02-17T05:30:55.109Z,25.90
2019-02-17T05:33:22.973Z,26.97
2019-02-17T05:35:51.454Z,23.57
2019-02-17T05:38:19.935Z,24.27
2019-02-17T05:40:48.415Z,25.80
2019-02-17T05:43:16.895Z,27.30
2019-02-17T05:45:45.379Z,24.90
2019-02-17T05:48:13.857Z,23.60
2019-02-17T05:50:43.361Z,27.30
2019-02-17T05:53:13.077Z,27.30
2019-02-17T05:55:41.550Z,29.20
2019-02-17T05:58:09.826Z,29.00
2019-02-17T06:00:38.922Z,37.67
2019-02-17T06:03:06.996Z,34.37
2019-02-17T06:05:48.601Z,35.30
2019-02-17T06:08:16.241Z,29.07
2019-02-17T06:10:46.565Z,33.63
2019-02-17T06:13:14.841Z,31.80
2019-02-17T06:15:43.335Z,26.50
2019-02-17T06:18:11.244Z,26.03
2019-02-17T06:20:38.523Z,25.57
2019-02-17T06:23:05.947Z,25.73
2019-02-17T06:25:34.379Z,25.97
2019-02-17T06:28:02.496Z,29.17
2019-02-17T06:30:30.930Z,32.83
2019-02-17T06:32:59.204Z,30.03
2019-02-17T06:35:27.275Z,26.30
2019-02-17T06:37:55.755Z,26.83
2019-02-17T06:40:24.031Z,31.67
2019-02-17T06:42:52.309Z,32.07
2019-02-17T06:45:20.044Z,35.17
2019-02-17T06:47:47.229Z,39.10
2019-02-17T06:50:14.486Z,32.20
2019-02-17T06:52:41.642Z,35.93
2019-02-17T06:55:10.727Z,35.83
2019-02-17T06:57:40.117Z,34.13
2019-02-17T07:00:17.200Z,33.63
2019-02-17T07:02:46.499Z,29.40
2019-02-17T07:05:28.503Z,28.37
2019-02-17T07:07:56.772Z,27.83
2019-02-17T07:10:25.049Z,28.20
2019-02-17T07:12:53.324Z,28.50
2019-02-17T07:15:21.807Z,27.53
2019-02-17T07:17:50.284Z,25.23
2019-02-17T07:20:18.768Z,25.77
2019-02-17T07:22:47.044Z,25.20
2019-02-17T07:25:15.122Z,25.47
2019-02-17T07:27:43.594Z,24.67
2019-02-17T07:30:25.005Z,26.07
2019-02-17T07:32:52.636Z,24.67
2019-02-17T07:35:21.118Z,37.40
2019-02-17T07:37:50.622Z,29.00
2019-02-17T07:40:18.908Z,25.90
2019-02-17T07:42:48.632Z,25.93
2019-02-17T07:45:17.091Z,26.30
2019-02-17T07:47:46.593Z,24.63
2019-02-17T07:50:16.097Z,26.73
2019-02-17T07:52:44.577Z,23.97
2019-02-17T07:55:13.058Z,24.00
2019-02-17T07:57:41.949Z,27.67
2019-02-17T08:00:11.253Z,23.53
2019-02-17T08:02:38.908Z,27.53
2019-02-17T08:05:07.471Z,22.53
2019-02-17T08:07:35.255Z,32.73
2019-02-17T08:10:08.242Z,39.00
2019-02-17T08:12:36.723Z,43.53
2019-02-17T08:15:07.396Z,42.27
2019-02-17T08:17:35.118Z,33.03
2019-02-17T08:20:16.075Z,29.72
2019-02-17T08:22:43.367Z,24.37
2019-02-17T08:25:21.511Z,25.17
2019-02-17T08:27:41.736Z,28.80
2019-02-17T08:30:11.846Z,28.85
2019-02-17T08:32:39.518Z,24.05
2019-02-17T08:35:07.794Z,25.23
2019-02-17T08:37:36.068Z,25.23
2019-02-17T08:40:06.873Z,20.20
2019-02-17T08:42:34.466Z,21.85
2019-02-17T08:45:09.702Z,21.05
2019-02-17T08:47:38.183Z,25.52
2019-02-17T08:50:10.809Z,23.15
2019-02-17T08:52:38.419Z,27.25
2019-02-17T08:55:09.000Z,26.30
2019-02-17T08:57:38.046Z,25.08
2019-02-17T09:00:12.909Z,20.80
2019-02-17T09:02:40.843Z,25.48
2019-02-17T09:05:08.813Z,25.40
2019-02-17T09:07:37.299Z,26.87
2019-02-17T09:10:09.049Z,20.17
2019-02-17T09:12:37.120Z,24.47
2019-02-17T09:15:08.672Z,22.85
2019-02-17T09:17:36.743Z,22.93
2019-02-17T09:20:08.032Z,22.60
2019-02-17T09:22:35.956Z,24.23
2019-02-17T09:25:06.870Z,23.07
2019-02-17T09:27:34.556Z,21.50
2019-02-17T09:30:03.973Z,20.17
2019-02-17T09:32:31.723Z,21.62
2019-02-17T09:34:59.997Z,22.93
2019-02-17T09:37:28.272Z,23.38
2019-02-17T09:39:56.554Z,25.48
2019-02-17T09:42:24.824Z,20.92
2019-02-17T09:44:52.895Z,22.35
2019-02-17T09:47:21.375Z,24.63
2019-02-17T09:49:49.651Z,29.92
2019-02-17T09:52:17.517Z,25.70
2019-02-17T09:55:06.101Z,32.73
2019-02-17T09:57:33.730Z,33.05
2019-02-17T10:00:03.056Z,23.38
2019-02-17T10:02:31.100Z,23.18
2019-02-17T10:05:00.627Z,25.85
2019-02-17T10:07:28.010Z,29.87
2019-02-17T10:09:56.132Z,23.15
2019-02-17T10:12:24.818Z,21.57
2019-02-17T10:14:53.300Z,19.85
2019-02-17T10:17:21.575Z,18.95
2019-02-17T10:19:49.856Z,18.62
2019-02-17T10:22:18.128Z,21.48
2019-02-17T10:24:46.401Z,18.70
2019-02-17T10:27:14.678Z,22.42
2019-02-17T10:29:42.702Z,18.62
2019-02-17T10:32:10.873Z,19.05
2019-02-17T10:34:39.307Z,21.05
2019-02-17T10:37:07.575Z,19.23
2019-02-17T10:39:35.851Z,16.90
2019-02-17T10:42:04.331Z,17.48
2019-02-17T10:44:32.813Z,20.93
2019-02-17T10:47:01.293Z,16.30
2019-02-17T10:49:29.363Z,18.45
2019-02-17T10:51:57.639Z,18.02
2019-02-17T10:54:25.921Z,22.40
2019-02-17T10:56:54.250Z,18.67
2019-02-17T10:59:22.466Z,15.80
2019-02-17T11:01:50.742Z,15.75
2019-02-17T11:04:19.019Z,15.90
2019-02-17T11:06:47.293Z,15.68
2019-02-17T11:09:20.945Z,14.15
2019-02-17T11:12:02.050Z,15.38
2019-02-17T11:14:29.733Z,17.62
2019-02-17T11:16:59.238Z,17.32
2019-02-17T11:19:27.514Z,15.85
2019-02-17T11:21:55.584Z,14.38
2019-02-17T11:24:23.860Z,14.00
2019-02-17T11:26:52.136Z,23.57
2019-02-17T11:29:20.618Z,21.62
2019-02-17T11:31:49.108Z,23.67
2019-02-17T11:34:17.373Z,20.68
2019-02-17T11:36:45.853Z,23.27
2019-02-17T11:39:16.177Z,15.58
2019-02-17T11:41:44.453Z,15.45
2019-02-17T11:44:12.783Z,15.00
2019-02-17T11:46:41.005Z,16.12
2019-02-17T11:49:09.280Z,13.80
2019-02-17T11:51:37.760Z,11.10
2019-02-17T11:54:06.241Z,10.00
2019-02-17T11:56:34.721Z,9.55
2019-02-17T11:59:03.202Z,9.05
2019-02-17T12:01:31.684Z,10.53
2019-02-17T12:03:59.960Z,10.38
2019-02-17T12:06:28.234Z,11.57
2019-02-17T12:08:56.717Z,8.80
2019-02-17T12:11:25.195Z,9.88
2019-02-17T12:13:53.676Z,8.93
2019-02-17T12:16:22.156Z,10.40
2019-02-17T12:18:50.637Z,11.65
2019-02-17T12:21:26.901Z,10.43
2019-02-17T12:24:10.946Z,11.38
2019-02-17T12:26:43.317Z,12.68
2019-02-17T12:29:13.231Z,13.22
2019-02-17T12:31:41.507Z,12.50
2019-02-17T12:34:09.988Z,12.85
2019-02-17T12:36:38.468Z,12.40
2019-02-17T12:39:08.167Z,13.20
2019-02-17T12:41:35.842Z,13.03
2019-02-17T12:44:04.118Z,16.05
2019-02-17T12:46:32.390Z,16.90
2019-02-17T12:49:13.970Z,15.83
2019-02-17T12:51:41.640Z,15.08
2019-02-17T12:54:09.916Z,14.33
2019-02-17T12:56:38.192Z,12.88
2019-02-17T12:59:06.466Z,13.78
2019-02-17T13:01:34.950Z,13.53
2019-02-17T13:04:03.433Z,11.65
2019-02-17T13:06:31.908Z,12.13
2019-02-17T13:09:00.185Z,13.08
2019-02-17T13:11:28.459Z,14.00
2019-02-17T13:13:56.735Z,14.68
2019-02-17T13:16:25.215Z,18.85
2019-02-17T13:18:53.695Z,13.30
2019-02-17T13:21:21.768Z,13.95
2019-02-17T13:23:50.247Z,15.30
2019-02-17T13:26:18.727Z,13.55
2019-02-17T13:28:47.209Z,14.20
2019-02-17T13:31:15.226Z,15.10
2019-02-17T13:33:43.556Z,16.00
2019-02-17T13:36:12.036Z,14.65
2019-02-17T13:38:40.322Z,15.43
2019-02-17T13:41:08.791Z,16.32
2019-02-17T13:43:50.210Z,14.25
2019-02-17T13:46:17.836Z,15.57
2019-02-17T13:48:46.316Z,14.40
2019-02-17T13:51:14.801Z,14.55
2019-02-17T13:53:43.095Z,15.47
2019-02-17T13:56:10.944Z,15.40
2019-02-17T13:58:39.215Z,13.40
2019-02-17T14:01:07.490Z,14.47
2019-02-17T14:03:35.766Z,14.80
2019-02-17T14:06:03.837Z,15.20
2019-02-17T14:08:32.727Z,17.73
2019-02-17T14:11:00.392Z,18.77
2019-02-17T14:13:28.869Z,18.07
2019-02-17T14:15:57.350Z,17.80
2019-02-17T14:18:25.625Z,17.27
2019-02-17T14:20:53.900Z,15.20
2019-02-17T14:23:21.975Z,14.30
2019-02-17T14:25:50.248Z,15.88
2019-02-17T14:28:18.524Z,14.40
2019-02-17T14:30:46.799Z,15.88
2019-02-17T14:33:15.075Z,13.83
2019-02-17T14:35:43.562Z,12.93
2019-02-17T14:38:12.036Z,23.67
2019-02-17T14:40:40.516Z,15.38
2019-02-17T14:43:08.997Z,13.70
2019-02-17T14:45:37.273Z,12.40
2019-02-17T14:48:05.755Z,10.43
2019-02-17T14:50:33.825Z,11.50
2019-02-17T14:53:01.690Z,10.73
2019-02-17T14:55:29.764Z,9.50
2019-02-17T14:58:04.915Z,11.18
2019-02-17T15:00:28.176Z,11.70
2019-02-17T15:02:56.431Z,12.50
2019-02-17T15:05:24.298Z,13.00
2019-02-17T15:07:52.778Z,12.37
2019-02-17T15:10:21.259Z,11.27
2019-02-17T15:12:49.745Z,9.63
2019-02-17T15:15:18.015Z,10.77
2019-02-17T15:17:46.495Z,9.97
2019-02-17T15:20:23.525Z,10.17
2019-02-17T15:22:52.765Z,10.00
2019-02-17T15:25:20.539Z,9.33
2019-02-17T15:27:49.021Z,10.13
2019-02-17T15:30:17.981Z,9.57
2019-02-17T15:32:45.781Z,10.10
2019-02-17T15:35:14.256Z,9.80
2019-02-17T15:37:42.737Z,9.30
2019-02-17T15:40:14.105Z,10.87
2019-02-17T15:42:43.224Z,11.23
2019-02-17T15:45:12.705Z,12.20
2019-02-17T15:47:40.550Z,11.60
2019-02-17T15:50:10.260Z,13.03
2019-02-17T15:52:37.920Z,11.03
2019-02-17T15:55:09.271Z,11.23
2019-02-17T15:57:36.724Z,12.13
2019-02-17T16:00:08.482Z,11.57
2019-02-17T16:02:36.553Z,16.43
2019-02-17T16:05:06.264Z,17.80
2019-02-17T16:07:33.926Z,17.03
2019-02-17T16:10:03.938Z,16.27
2019-02-17T16:12:31.909Z,18.77
2019-02-17T16:15:00.035Z,14.70
2019-02-17T16:17:28.463Z,14.97
2019-02-17T16:19:57.145Z,17.03
2019-02-17T16:22:25.140Z,16.70
2019-02-17T16:24:52.400Z,19.20
2019-02-17T16:27:19.796Z,19.00
2019-02-17T16:29:47.196Z,19.13
2019-02-17T16:32:14.480Z,20.20
2019-02-17T16:34:41.746Z,17.93
2019-02-17T16:37:09.229Z,18.43
2019-02-17T16:39:36.774Z,20.50
2019-02-17T16:42:04.156Z,20.13
2019-02-17T16:44:31.432Z,22.37
2019-02-17T16:46:58.735Z,23.73
2019-02-17T16:49:26.016Z,24.43
2019-02-17T16:51:53.327Z,24.87
2019-02-17T16:54:20.659Z,30.57
2019-02-17T16:56:48.097Z,24.60
2019-02-17T16:59:15.484Z,28.80
2019-02-17T17:01:42.755Z,29.00
2019-02-17T17:04:10.082Z,29.83
2019-02-17T17:06:37.264Z,29.03
2019-02-17T17:09:04.621Z,33.20
2019-02-17T17:11:31.919Z,37.17
2019-02-17T17:13:59.224Z,34.17
2019-02-17T17:16:26.598Z,37.57
2019-02-17T17:18:53.853Z,42.73
2019-02-17T17:21:21.157Z,43.60
2019-02-17T17:23:48.516Z,34.83
2019-02-17T17:26:15.820Z,32.93
2019-02-17T17:28:43.168Z,30.50
2019-02-17T17:31:10.491Z,34.30
2019-02-17T17:33:37.745Z,56.67
2019-02-17T17:36:05.075Z,35.00
2019-02-17T17:38:32.297Z,36.20
2019-02-17T17:40:59.665Z,37.40
2019-02-17T17:43:26.957Z,62.33
2019-02-17T17:45:54.313Z,82.87
2019-02-17T17:48:21.509Z,57.73
2019-02-17T17:50:48.908Z,37.33
2019-02-17T17:53:16.181Z,31.77
2019-02-17T17:55:43.543Z,25.33
2019-02-17T17:58:10.829Z,23.77
2019-02-17T18:00:39.351Z,23.73
2019-02-17T18:03:06.900Z,24.40
2019-02-17T18:05:34.201Z,24.00
2019-02-17T18:08:01.438Z,24.80
2019-02-17T18:10:30.619Z,34.60
2019-02-17T18:12:59.915Z,40.43
2019-02-17T18:15:27.224Z,30.40
2019-02-17T18:17:55.124Z,28.00
2019-02-17T18:20:22.589Z,28.17
2019-02-17T18:22:49.863Z,32.07
2019-02-17T18:25:17.063Z,33.03
2019-02-17T18:27:44.317Z,33.80
2019-02-17T18:30:16.930Z,31.47
2019-02-17T18:32:44.136Z,36.07
2019-02-17T18:35:19.244Z,36.27
2019-02-17T18:37:41.302Z,40.17
2019-02-17T18:40:12.753Z,37.73
2019-02-17T18:42:40.028Z,40.57
2019-02-17T18:45:14.701Z,42.40
2019-02-17T18:47:41.864Z,50.90
2019-02-17T18:50:10.984Z,48.17
2019-02-17T18:52:38.296Z,40.10
2019-02-17T18:55:07.148Z,45.37
2019-02-17T18:57:34.559Z,40.63
2019-02-17T19:00:03.231Z,45.33
2019-02-17T19:02:30.597Z,47.40
2019-02-17T19:04:57.941Z,49.43
2019-02-17T19:07:25.193Z,52.87
2019-02-17T19:09:52.871Z,51.00
2019-02-17T19:12:20.232Z,52.83
2019-02-17T19:14:47.625Z,52.67
2019-02-17T19:17:14.906Z,56.03
2019-02-17T19:19:42.567Z,50.43
2019-02-17T19:22:10.637Z,54.90
2019-02-17T19:24:38.920Z,51.73
2019-02-17T19:27:08.624Z,49.10
2019-02-17T19:29:36.693Z,53.50
2019-02-17T19:32:04.973Z,52.53
2019-02-17T19:34:34.420Z,50.97
2019-02-17T19:37:02.954Z,50.67
2019-02-17T19:39:31.027Z,52.30
2019-02-17T19:41:59.101Z,52.57
2019-02-17T19:44:27.578Z,52.23
2019-02-17T19:46:55.654Z,49.17
2019-02-17T19:49:23.924Z,49.93
2019-02-17T19:51:52.254Z,54.60
2019-02-17T19:54:20.479Z,52.03
2019-02-17T19:56:48.711Z,54.43
2019-02-17T19:59:17.436Z,50.87
2019-02-17T20:01:45.097Z,48.60
2019-02-17T20:04:15.035Z,49.00
2019-02-17T20:06:43.084Z,54.80
2019-02-17T20:09:15.308Z,53.23
2019-02-17T20:11:42.296Z,51.43
2019-02-17T20:14:10.674Z,50.37
2019-02-17T20:16:38.643Z,51.37
2019-02-17T20:19:06.713Z,57.03
2019-02-17T20:21:34.989Z,62.70
2019-02-17T20:24:03.061Z,54.27
2019-02-17T20:26:31.541Z,57.30
2019-02-17T20:28:59.818Z,63.70
2019-02-17T20:31:28.155Z,79.47
2019-02-17T20:33:56.372Z,58.33
2019-02-17T20:36:24.443Z,88.23
2019-02-17T20:39:05.164Z,63.87
2019-02-17T20:41:32.668Z,68.07
2019-02-17T20:44:00.785Z,60.47
2019-02-17T20:46:29.013Z,95.10
2019-02-17T20:48:57.083Z,137.60
2019-02-17T20:51:25.359Z,133.67
2019-02-17T20:53:54.247Z,149.50
2019-02-17T20:56:21.911Z,148.67
2019-02-17T20:58:50.393Z,160.07
2019-02-17T21:01:18.461Z,123.80
2019-02-17T21:03:46.736Z,152.80
2019-02-17T21:06:14.603Z,142.17
2019-02-17T21:08:43.083Z,139.20
2019-02-17T21:11:11.566Z,136.83
2019-02-17T21:13:40.045Z,157.20
2019-02-17T21:16:08.935Z,161.37
2019-02-17T21:18:36.801Z,149.30
2019-02-17T21:21:05.076Z,126.60
2019-02-17T21:23:33.351Z,136.73
2019-02-17T21:26:01.629Z,125.73
2019-02-17T21:28:29.903Z,134.97
2019-02-17T21:30:58.180Z,134.37
2019-02-17T21:33:26.455Z,121.70
2019-02-17T21:35:54.731Z,130.87
2019-02-17T21:38:22.664Z,142.23
2019-02-17T21:40:50.462Z,148.33
2019-02-17T21:43:18.330Z,140.50
2019-02-17T21:45:46.809Z,129.50
2019-02-17T21:48:16.315Z,134.30
2019-02-17T21:50:44.593Z,113.10
2019-02-17T21:53:20.409Z,115.80
2019-02-17T21:55:42.784Z,140.40
2019-02-17T21:58:11.261Z,116.00
2019-02-17T22:00:39.741Z,141.97
2019-02-17T22:03:08.221Z,142.67
2019-02-17T22:05:36.291Z,143.80
2019-02-17T22:08:04.369Z,119.50
2019-02-17T22:10:32.229Z,131.73
2019-02-17T22:13:00.504Z,128.20
2019-02-17T22:15:28.985Z,134.47
2019-02-17T22:17:57.468Z,134.03
2019-02-17T22:20:25.952Z,109.07
2019-02-17T22:22:54.429Z,128.17
2019-02-17T22:25:22.907Z,97.63
2019-02-17T22:27:51.253Z,108.50
2019-02-17T22:30:19.412Z,124.07
2019-02-17T22:32:47.739Z,115.07
2019-02-17T22:35:16.010Z,125.97
2019-02-17T22:37:44.081Z,128.20
2019-02-17T22:40:12.989Z,106.63
2019-02-17T22:42:40.428Z,111.77
2019-02-17T22:45:10.136Z,127.33
2019-02-17T22:47:37.800Z,129.17
2019-02-17T22:50:11.810Z,135.77
2019-02-17T22:52:40.086Z,131.30
2019-02-17T22:55:11.022Z,116.83
2019-02-17T22:57:38.686Z,152.27
2019-02-17T23:00:47.510Z,130.40
2019-02-17T23:03:15.990Z,146.83
2019-02-17T23:05:47.953Z,131.03
2019-02-17T23:08:16.229Z,123.37
2019-02-17T23:10:44.299Z,115.87
2019-02-17T23:13:12.175Z,114.90
2019-02-17T23:15:40.441Z,102.53
2019-02-17T23:18:08.923Z,108.17
2019-02-17T23:20:37.402Z,104.07
2019-02-17T23:23:05.677Z,93.47
2019-02-17T23:25:33.953Z,89.57
2019-02-17T23:28:02.229Z,80.70
2019-02-17T23:30:30.566Z,86.07
2019-02-17T23:32:58.576Z,78.90
2019-02-17T23:35:26.851Z,87.03
2019-02-17T23:37:56.563Z,128.77
2019-02-17T23:40:25.042Z,129.07
2019-02-17T23:42:53.522Z,91.87
2019-02-17T23:45:21.593Z,83.27
2019-02-17T23:47:49.664Z,77.30
2019-02-17T23:50:17.735Z,74.33
2019-02-17T23:52:45.805Z,70.30
2019-02-17T23:55:14.084Z,77.97
2019-02-17T23:57:42.356Z,79.40
